Time;durP1;ratioP1;P1;durP2;ratioP2;P2;SDS_P1;SDS_P2;PMS_P1;PMS_P2;Temp;Humidity;BMP_temperature;BMP_pressure;BME280_temperature;BME280_humidity;BME280_pressure;Samples;Min_cycle;Max_cycle;Signal;HPM_P1;HPM_P2
2023/08/09 00:00:50;;;;;;;;;;;13.00;99.90;;;;;;5039672;28;19925;-77
2023/08/09 00:03:16;;;;;;;;;;;13.10;99.90;;;;;;5055128;28;19993;-77
2023/08/09 00:05:41;;;;;;;;;;;13.10;99.90;;;;;;5055516;28;19940;-78
2023/08/09 00:08:07;;;;;;;;;;;13.20;99.90;;;;;;5022171;28;19951;-78
2023/08/09 00:10:33;;;;;;;;;;;13.20;99.90;;;;;;5038635;28;19936;-77
2023/08/09 00:12:59;;;;;;;;;;;13.20;99.90;;;;;;5055843;28;20422;-78
2023/08/09 00:15:24;;;;;;;;;;;13.30;99.90;;;;;;5055169;28;19960;-77
2023/08/09 00:17:50;;;;;;;;;;;13.30;99.90;;;;;;5039740;28;20280;-78
2023/08/09 00:20:16;;;;;;;;;;;13.30;99.90;;;;;;5025022;28;20292;-77
2023/08/09 00:22:41;;;;;;;;;;;13.30;99.90;;;;;;5067885;28;19926;-81
2023/08/09 00:25:09;;;;;;;;;;;13.30;99.90;;;;;;5029196;28;19964;-78
2023/08/09 00:27:34;;;;;;;;;;;13.30;99.90;;;;;;5038802;28;19929;-79
2023/08/09 00:30:00;;;;;;;;;;;13.30;99.90;;;;;;5033126;28;20411;-78
2023/08/09 00:32:26;;;;;;;;;;;13.40;99.90;;;;;;5008067;28;19926;-77
2023/08/09 00:34:51;;;;;;;;;;;13.40;99.90;;;;;;5055597;28;20007;-77
2023/08/09 00:37:17;;;;;;;;;;;13.30;99.90;;;;;;5037947;28;19975;-77
2023/08/09 00:39:43;;;;;;;;;;;13.30;99.90;;;;;;5038504;28;19971;-78
2023/08/09 00:42:08;;;;;;;;;;;13.30;99.90;;;;;;5054660;28;19940;-78
2023/08/09 00:44:34;;;;;;;;;;;13.30;99.90;;;;;;5055363;28;19967;-77
2023/08/09 00:47:00;;;;;;;;;;;13.30;99.90;;;;;;5041197;28;20249;-77
2023/08/09 00:49:25;;;;;;;;;;;13.30;99.90;;;;;;5043550;28;19976;-78
2023/08/09 00:51:52;;;;;;;;;;;13.30;99.90;;;;;;5035373;28;19933;-78
2023/08/09 00:54:20;;;;;;;;;;;13.30;99.90;;;;;;5037679;28;19936;-78
2023/08/09 00:56:45;;;;;;;;;;;13.30;99.90;;;;;;5038674;28;19968;-78
2023/08/09 00:59:11;;;;;;;;;;;13.30;99.90;;;;;;5054020;28;19932;-78
2023/08/09 01:01:37;;;;;;;;;;;13.30;99.90;;;;;;5054731;28;20018;-78
2023/08/09 01:04:02;;;;;;;;;;;13.30;99.90;;;;;;5037843;28;19932;-78
2023/08/09 01:06:36;;;;;;;;;;;13.30;99.90;;;;;;5037873;28;20040;-78
2023/08/09 01:09:12;;;;;;;;;;;13.30;99.90;;;;;;5021774;28;19969;-78
2023/08/09 01:11:44;;;;;;;;;;;13.30;99.90;;;;;;5053982;28;19929;-78
2023/08/09 01:14:11;;;;;;;;;;;13.30;99.90;;;;;;5038542;28;19925;-78
2023/08/09 01:16:37;;;;;;;;;;;13.30;99.90;;;;;;5020738;28;19925;-78
2023/08/09 01:19:07;;;;;;;;;;;13.20;99.90;;;;;;5037008;28;19943;-78
2023/08/09 01:21:35;;;;;;;;;;;13.20;99.90;;;;;;5054669;28;19936;-78
2023/08/09 01:24:00;;;;;;;;;;;13.20;99.90;;;;;;5011261;28;19930;-78
2023/08/09 01:26:27;;;;;;;;;;;13.20;99.90;;;;;;5054848;28;19933;-78
2023/08/09 01:28:52;;;;;;;;;;;13.20;99.90;;;;;;5037141;28;19988;-78
2023/08/09 01:31:18;;;;;;;;;;;13.30;99.90;;;;;;5048903;28;19933;-78
2023/08/09 01:33:43;;;;;;;;;;;13.20;99.90;;;;;;5028567;28;19925;-78
2023/08/09 01:36:14;;;;;;;;;;;13.20;99.90;;;;;;5054122;28;19979;-78
2023/08/09 01:38:44;;;;;;;;;;;13.20;99.90;;;;;;5054323;28;19973;-77
2023/08/09 01:41:10;;;;;;;;;;;13.20;99.90;;;;;;5020903;28;20007;-77
2023/08/09 01:43:43;;;;;;;;;;;13.10;99.90;;;;;;5033870;28;20367;-78
2023/08/09 01:46:08;;;;;;;;;;;13.10;99.90;;;;;;5028696;28;19961;-78
2023/08/09 01:48:35;;;;;;;;;;;13.10;99.90;;;;;;5037520;28;19929;-78
2023/08/09 01:51:01;;;;;;;;;;;13.10;99.90;;;;;;5054026;28;19929;-78
2023/08/09 01:53:27;;;;;;;;;;;13.10;99.90;;;;;;5020458;28;20027;-78
2023/08/09 01:55:53;;;;;;;;;;;13.10;99.90;;;;;;5021275;28;19932;-78
2023/08/09 01:58:19;;;;;;;;;;;13.10;99.90;;;;;;5053519;28;19972;-78
2023/08/09 02:00:44;;;;;;;;;;;13.10;99.90;;;;;;5054229;28;19925;-78
2023/08/09 02:03:11;;;;;;;;;;;13.10;99.90;;;;;;5053424;28;19984;-78
2023/08/09 02:05:38;;;;;;;;;;;13.10;99.90;;;;;;5021166;28;19929;-78
2023/08/09 02:08:04;;;;;;;;;;;13.00;99.90;;;;;;5036801;28;19929;-78
2023/08/09 02:10:30;;;;;;;;;;;13.00;99.90;;;;;;5036821;28;19964;-78
2023/08/09 02:12:57;;;;;;;;;;;13.00;99.90;;;;;;5054184;28;19925;-78
2023/08/09 02:15:23;;;;;;;;;;;13.00;99.90;;;;;;5020545;28;20036;-78
2023/08/09 02:17:49;;;;;;;;;;;13.00;99.90;;;;;;5054198;28;19925;-78
2023/08/09 02:20:15;;;;;;;;;;;13.00;99.90;;;;;;5019760;28;19925;-78
2023/08/09 02:22:41;;;;;;;;;;;13.00;99.90;;;;;;5037239;28;19925;-78
2023/08/09 02:25:07;;;;;;;;;;;13.00;99.90;;;;;;5020058;28;19932;-78
2023/08/09 02:27:33;;;;;;;;;;;13.00;99.90;;;;;;5020859;28;20318;-78
2023/08/09 02:30:02;;;;;;;;;;;13.00;99.90;;;;;;5040197;28;19929;-78
2023/08/09 02:32:28;;;;;;;;;;;13.00;99.90;;;;;;5040552;28;19925;-78
2023/08/09 02:35:00;;;;;;;;;;;12.90;99.90;;;;;;5058797;28;19931;-78
2023/08/09 02:37:25;;;;;;;;;;;13.00;99.90;;;;;;5040155;28;19976;-78
2023/08/09 02:39:51;;;;;;;;;;;12.90;99.90;;;;;;5043812;28;19932;-78
2023/08/09 02:42:17;;;;;;;;;;;12.90;99.90;;;;;;5056766;28;19929;-78
2023/08/09 02:44:42;;;;;;;;;;;12.90;99.90;;;;;;5057245;28;19925;-78
2023/08/09 02:47:08;;;;;;;;;;;12.90;99.90;;;;;;5040633;28;19929;-78
2023/08/09 02:49:34;;;;;;;;;;;12.90;99.90;;;;;;5039867;28;19948;-78
2023/08/09 02:51:59;;;;;;;;;;;12.90;99.90;;;;;;5040895;28;19936;-78
2023/08/09 02:54:25;;;;;;;;;;;12.90;99.90;;;;;;5056787;28;19928;-78
2023/08/09 02:56:50;;;;;;;;;;;12.90;99.90;;;;;;5007719;28;20000;-78
2023/08/09 02:59:16;;;;;;;;;;;12.90;99.90;;;;;;5023492;28;19931;-78
2023/08/09 03:01:44;;;;;;;;;;;12.90;99.90;;;;;;5040409;28;19933;-78
2023/08/09 03:04:10;;;;;;;;;;;12.90;99.90;;;;;;5040230;28;19929;-78
2023/08/09 03:06:35;;;;;;;;;;;12.90;99.90;;;;;;5040111;28;19936;-78
2023/08/09 03:09:02;;;;;;;;;;;12.90;99.90;;;;;;5040281;28;19936;-79
2023/08/09 03:11:28;;;;;;;;;;;12.90;99.90;;;;;;5039736;28;19925;-78
2023/08/09 03:13:53;;;;;;;;;;;12.80;99.90;;;;;;5024206;28;19925;-78
2023/08/09 03:16:20;;;;;;;;;;;12.80;99.90;;;;;;5039574;28;19961;-78
2023/08/09 03:18:46;;;;;;;;;;;12.80;99.90;;;;;;5039626;28;20441;-78
2023/08/09 03:21:12;;;;;;;;;;;12.80;99.90;;;;;;5023260;28;19925;-78
2023/08/09 03:23:38;;;;;;;;;;;12.80;99.90;;;;;;5040006;28;19925;-78
2023/08/09 03:26:03;;;;;;;;;;;12.70;99.90;;;;;;5039778;28;19964;-78
2023/08/09 03:28:29;;;;;;;;;;;12.80;99.90;;;;;;5023110;28;20021;-78
2023/08/09 03:30:55;;;;;;;;;;;12.80;99.90;;;;;;5026019;28;19929;-78
2023/08/09 03:33:20;;;;;;;;;;;12.70;99.90;;;;;;5039145;28;19936;-77
2023/08/09 03:35:46;;;;;;;;;;;12.70;99.90;;;;;;5023527;28;19968;-78
2023/08/09 03:38:13;;;;;;;;;;;12.70;99.90;;;;;;5039927;28;19925;-78
2023/08/09 03:40:39;;;;;;;;;;;12.70;99.90;;;;;;5038493;28;19932;-78
2023/08/09 03:43:04;;;;;;;;;;;12.70;99.90;;;;;;5007350;28;19929;-78
2023/08/09 03:45:30;;;;;;;;;;;12.70;99.90;;;;;;5039137;28;19936;-78
2023/08/09 03:47:56;;;;;;;;;;;12.70;99.90;;;;;;5023845;28;19967;-78
2023/08/09 03:50:21;;;;;;;;;;;12.70;99.90;;;;;;5038231;28;19925;-78
2023/08/09 03:52:47;;;;;;;;;;;12.70;99.90;;;;;;5039977;28;19925;-78
2023/08/09 03:55:12;;;;;;;;;;;12.70;99.90;;;;;;5038668;28;19968;-77
2023/08/09 03:57:38;;;;;;;;;;;12.70;99.90;;;;;;5039477;28;19944;-78
2023/08/09 04:00:04;;;;;;;;;;;12.70;99.90;;;;;;5056268;28;19925;-78
2023/08/09 04:02:29;;;;;;;;;;;12.70;99.90;;;;;;5038732;28;20380;-78
2023/08/09 04:04:55;;;;;;;;;;;12.60;99.90;;;;;;5043482;28;19985;-78
2023/08/09 04:07:21;;;;;;;;;;;12.60;99.90;;;;;;5022312;28;19936;-78
2023/08/09 04:09:46;;;;;;;;;;;12.60;99.90;;;;;;5022982;28;19925;-78
2023/08/09 04:12:12;;;;;;;;;;;12.60;99.90;;;;;;5038451;28;19932;-78
2023/08/09 04:14:37;;;;;;;;;;;12.60;99.90;;;;;;5022647;28;19979;-78
2023/08/09 04:17:04;;;;;;;;;;;12.60;99.90;;;;;;5025517;28;19943;-78
2023/08/09 04:19:30;;;;;;;;;;;12.60;99.90;;;;;;5021696;28;19925;-78
2023/08/09 04:21:55;;;;;;;;;;;12.60;99.90;;;;;;5039256;28;19929;-78
2023/08/09 04:24:21;;;;;;;;;;;12.60;99.90;;;;;;5038211;28;19929;-78
2023/08/09 04:26:47;;;;;;;;;;;12.60;99.90;;;;;;5022771;28;19928;-77
2023/08/09 04:29:12;;;;;;;;;;;12.60;99.90;;;;;;5021588;28;20079;-77
2023/08/09 04:31:38;;;;;;;;;;;12.60;99.90;;;;;;5038730;28;19929;-78
2023/08/09 04:34:04;;;;;;;;;;;12.60;99.90;;;;;;5022402;28;20037;-78
2023/08/09 04:36:31;;;;;;;;;;;12.50;99.90;;;;;;5038356;28;20026;-78
2023/08/09 04:38:57;;;;;;;;;;;12.50;99.90;;;;;;5039032;28;19932;-77
2023/08/09 04:41:22;;;;;;;;;;;12.50;99.90;;;;;;5039457;28;19929;-77
2023/08/09 04:43:53;;;;;;;;;;;12.60;99.90;;;;;;5039007;28;19952;-77
2023/08/09 04:46:19;;;;;;;;;;;12.50;99.90;;;;;;5071214;28;19924;-77
2023/08/09 04:48:45;;;;;;;;;;;12.60;99.90;;;;;;5038368;28;20459;-78
2023/08/09 04:51:11;;;;;;;;;;;12.60;99.90;;;;;;5021332;28;20007;-78
2023/08/09 04:53:37;;;;;;;;;;;12.60;99.90;;;;;;5030313;28;20126;-77
2023/08/09 04:56:03;;;;;;;;;;;12.60;99.90;;;;;;5038620;28;19931;-78
2023/08/09 04:58:29;;;;;;;;;;;12.70;99.90;;;;;;5037628;28;19944;-77
2023/08/09 05:00:55;;;;;;;;;;;12.70;99.90;;;;;;5038313;28;19925;-76
2023/08/09 05:03:20;;;;;;;;;;;12.70;99.90;;;;;;5037300;28;19932;-78
2023/08/09 05:05:46;;;;;;;;;;;12.80;99.90;;;;;;5054781;28;20477;-77
2023/08/09 05:08:12;;;;;;;;;;;12.80;99.90;;;;;;5037843;28;19971;-78
2023/08/09 05:10:38;;;;;;;;;;;12.80;99.90;;;;;;5021184;28;19925;-78
2023/08/09 05:13:03;;;;;;;;;;;12.80;99.90;;;;;;5038312;28;20368;-78
2023/08/09 05:15:29;;;;;;;;;;;12.80;99.90;;;;;;5054000;28;19929;-77
2023/08/09 05:17:54;;;;;;;;;;;12.80;99.90;;;;;;5038117;28;19929;-77
2023/08/09 05:20:20;;;;;;;;;;;12.80;99.90;;;;;;5036564;28;19931;-78
2023/08/09 05:22:46;;;;;;;;;;;12.90;99.90;;;;;;5038332;28;20011;-78
2023/08/09 05:25:11;;;;;;;;;;;12.90;99.90;;;;;;5021210;28;19929;-77
2023/08/09 05:27:37;;;;;;;;;;;12.90;99.90;;;;;;5054075;28;19964;-78
2023/08/09 05:30:04;;;;;;;;;;;13.00;99.90;;;;;;5054230;28;19932;-77
2023/08/09 05:32:29;;;;;;;;;;;13.10;99.90;;;;;;5037414;28;19925;-78
2023/08/09 05:34:56;;;;;;;;;;;13.10;99.90;;;;;;5037849;28;19968;-78
2023/08/09 05:37:21;;;;;;;;;;;13.20;99.90;;;;;;5053387;28;19936;-78
2023/08/09 05:39:47;;;;;;;;;;;13.20;99.90;;;;;;5021306;28;19936;-78
2023/08/09 05:42:12;;;;;;;;;;;13.20;99.90;;;;;;5020123;28;19952;-78
2023/08/09 05:44:38;;;;;;;;;;;13.30;99.90;;;;;;5053959;28;20011;-78
2023/08/09 05:47:04;;;;;;;;;;;13.30;99.90;;;;;;5037656;28;19925;-78
2023/08/09 05:49:30;;;;;;;;;;;13.40;99.90;;;;;;5053164;28;19925;-78
2023/08/09 05:51:55;;;;;;;;;;;13.40;99.90;;;;;;5071097;28;19929;-78
2023/08/09 05:54:21;;;;;;;;;;;13.50;99.90;;;;;;5036461;28;19929;-78
2023/08/09 05:56:47;;;;;;;;;;;13.50;99.90;;;;;;5021054;28;19931;-78
2023/08/09 05:59:13;;;;;;;;;;;13.60;99.90;;;;;;5020375;28;20008;-78
2023/08/09 06:01:38;;;;;;;;;;;13.60;99.90;;;;;;5036792;28;20909;-78
2023/08/09 06:04:05;;;;;;;;;;;13.70;99.90;;;;;;5036665;28;19989;-77
2023/08/09 06:06:36;;;;;;;;;;;13.80;99.90;;;;;;5052804;28;19932;-78
2023/08/09 06:09:05;;;;;;;;;;;13.90;99.90;;;;;;5021254;28;19936;-78
2023/08/09 06:11:30;;;;;;;;;;;13.90;99.90;;;;;;5052986;28;19930;-78
2023/08/09 06:13:57;;;;;;;;;;;13.90;99.90;;;;;;5020958;28;19979;-77
2023/08/09 06:16:23;;;;;;;;;;;14.00;99.90;;;;;;5036322;28;19929;-78
2023/08/09 06:18:48;;;;;;;;;;;14.10;99.90;;;;;;5036756;28;19996;-78
2023/08/09 06:21:14;;;;;;;;;;;14.10;99.90;;;;;;5036439;28;19925;-77
2023/08/09 06:23:40;;;;;;;;;;;14.20;99.90;;;;;;5036544;28;19925;-78
2023/08/09 06:26:05;;;;;;;;;;;14.30;99.90;;;;;;5037447;28;19940;-78
2023/08/09 06:28:31;;;;;;;;;;;14.40;99.90;;;;;;5052926;28;20020;-77
2023/08/09 06:30:58;;;;;;;;;;;14.50;99.90;;;;;;5037439;28;19952;-78
2023/08/09 06:33:23;;;;;;;;;;;14.60;99.90;;;;;;5036043;28;19925;-78
2023/08/09 06:35:49;;;;;;;;;;;14.70;99.90;;;;;;5037044;28;19983;-78
2023/08/09 06:38:14;;;;;;;;;;;15.10;99.90;;;;;;5020475;28;20030;-78
2023/08/09 06:40:40;;;;;;;;;;;15.40;99.90;;;;;;5020089;28;19964;-78
2023/08/09 06:43:06;;;;;;;;;;;15.70;99.90;;;;;;5037448;28;20012;-78
2023/08/09 06:45:33;;;;;;;;;;;16.00;99.90;;;;;;5052794;28;19932;-79
2023/08/09 06:47:59;;;;;;;;;;;16.40;99.90;;;;;;5053758;28;19948;-78
2023/08/09 06:50:26;;;;;;;;;;;16.70;99.90;;;;;;5019168;28;19933;-78
2023/08/09 06:52:52;;;;;;;;;;;17.00;99.90;;;;;;5070621;28;20419;-79
2023/08/09 06:55:18;;;;;;;;;;;17.50;99.90;;;;;;5036368;28;19925;-78
2023/08/09 06:57:47;;;;;;;;;;;17.80;99.90;;;;;;5037964;28;19932;-79
2023/08/09 07:00:18;;;;;;;;;;;17.90;99.90;;;;;;5036051;28;19952;-79
2023/08/09 07:02:45;;;;;;;;;;;17.80;99.90;;;;;;5035968;28;19925;-78
2023/08/09 07:05:15;;;;;;;;;;;17.60;99.90;;;;;;5036941;28;20384;-78
2023/08/09 07:07:51;;;;;;;;;;;17.60;99.90;;;;;;5053099;28;19929;-78
2023/08/09 07:10:17;;;;;;;;;;;17.40;99.90;;;;;;5069663;28;19948;-79
2023/08/09 07:12:43;;;;;;;;;;;17.20;99.90;;;;;;5020372;28;20388;-78
2023/08/09 07:15:09;;;;;;;;;;;17.10;99.90;;;;;;5036157;28;19933;-78
2023/08/09 07:17:35;;;;;;;;;;;17.20;99.90;;;;;;5023861;28;19929;-77
2023/08/09 07:20:02;;;;;;;;;;;17.30;99.90;;;;;;5039450;28;20453;-78
2023/08/09 07:22:27;;;;;;;;;;;17.30;99.90;;;;;;5007614;28;19987;-78
2023/08/09 07:24:53;;;;;;;;;;;17.40;99.90;;;;;;5039512;28;20368;-78
2023/08/09 07:27:19;;;;;;;;;;;17.40;99.90;;;;;;5023367;28;19932;-78
2023/08/09 07:29:44;;;;;;;;;;;17.60;99.90;;;;;;5023595;28;19989;-78
2023/08/09 07:32:10;;;;;;;;;;;18.10;99.90;;;;;;5055757;28;19957;-78
2023/08/09 07:34:35;;;;;;;;;;;18.80;99.90;;;;;;5040224;28;19936;-78
2023/08/09 07:37:01;;;;;;;;;;;19.40;99.90;;;;;;5039509;28;20051;-78
2023/08/09 07:39:27;;;;;;;;;;;20.00;99.90;;;;;;5040065;28;20404;-78
2023/08/09 07:41:53;;;;;;;;;;;20.40;99.90;;;;;;5022481;28;20471;-78
2023/08/09 07:44:19;;;;;;;;;;;20.70;99.90;;;;;;5023509;28;20012;-79
2023/08/09 07:46:44;;;;;;;;;;;21.00;99.90;;;;;;5023078;28;19925;-79
2023/08/09 07:49:13;;;;;;;;;;;21.30;99.90;;;;;;5038894;28;19968;-79
2023/08/09 07:51:38;;;;;;;;;;;21.60;99.90;;;;;;5039717;28;19932;-79
2023/08/09 07:54:04;;;;;;;;;;;21.90;99.90;;;;;;5038949;28;19925;-78
2023/08/09 07:56:30;;;;;;;;;;;21.90;99.90;;;;;;5039337;28;20003;-79
2023/08/09 07:58:56;;;;;;;;;;;22.00;99.90;;;;;;5038910;28;19965;-79
2023/08/09 08:01:21;;;;;;;;;;;22.10;99.90;;;;;;5039499;28;19925;-78
2023/08/09 08:03:47;;;;;;;;;;;22.10;99.90;;;;;;5005957;28;19925;-78
2023/08/09 08:06:12;;;;;;;;;;;22.10;99.90;;;;;;5022459;28;19925;-79
2023/08/09 08:08:39;;;;;;;;;;;22.20;99.90;;;;;;5039295;28;19929;-78
2023/08/09 08:11:04;;;;;;;;;;;22.40;99.90;;;;;;5022683;28;19926;-77
2023/08/09 08:13:30;;;;;;;;;;;22.50;99.90;;;;;;5039626;28;19944;-78
2023/08/09 08:15:56;;;;;;;;;;;22.60;99.90;;;;;;5038473;28;20542;-78
2023/08/09 08:18:22;;;;;;;;;;;22.70;99.90;;;;;;5039325;28;19925;-78
2023/08/09 08:20:47;;;;;;;;;;;22.80;99.90;;;;;;5038135;28;19925;-78
2023/08/09 08:23:13;;;;;;;;;;;22.70;99.90;;;;;;5022193;28;19925;-78
2023/08/09 08:25:39;;;;;;;;;;;22.80;99.90;;;;;;5038914;28;19929;-79
2023/08/09 08:28:05;;;;;;;;;;;22.80;99.90;;;;;;5038000;28;19929;-78
2023/08/09 08:30:31;;;;;;;;;;;22.70;99.90;;;;;;5055552;28;19932;-79
2023/08/09 08:32:57;;;;;;;;;;;22.80;99.90;;;;;;5038232;28;19924;-78
2023/08/09 08:35:24;;;;;;;;;;;22.80;99.90;;;;;;5022357;28;19948;-78
2023/08/09 08:37:53;;;;;;;;;;;22.90;99.90;;;;;;5055067;28;19952;-79
2023/08/09 08:40:19;;;;;;;;;;;23.10;99.90;;;;;;5021907;28;19925;-79
2023/08/09 08:42:45;;;;;;;;;;;23.20;99.90;;;;;;5038937;28;19995;-78
2023/08/09 08:45:11;;;;;;;;;;;23.20;99.90;;;;;;5038165;28;20407;-78
2023/08/09 08:47:39;;;;;;;;;;;23.20;99.90;;;;;;5038813;28;19925;-78
2023/08/09 08:50:05;;;;;;;;;;;23.30;99.90;;;;;;5021008;28;19960;-78
2023/08/09 08:52:33;;;;;;;;;;;23.40;99.90;;;;;;5021926;28;19936;-78
2023/08/09 08:54:59;;;;;;;;;;;23.70;99.90;;;;;;5053946;28;19925;-77
2023/08/09 08:57:26;;;;;;;;;;;23.80;99.90;;;;;;5038269;28;19929;-79
2023/08/09 08:59:52;;;;;;;;;;;23.80;99.90;;;;;;5038230;28;19926;-77
2023/08/09 09:02:19;;;;;;;;;;;23.80;99.90;;;;;;5037531;28;19964;-78
2023/08/09 09:04:45;;;;;;;;;;;23.80;99.90;;;;;;5038311;28;19947;-78
2023/08/09 09:07:11;;;;;;;;;;;23.80;99.90;;;;;;5037138;28;19925;-77
2023/08/09 09:09:43;;;;;;;;;;;23.90;99.90;;;;;;5021769;28;20008;-78
2023/08/09 09:12:08;;;;;;;;;;;23.80;99.90;;;;;;5036336;28;19929;-78
2023/08/09 09:14:35;;;;;;;;;;;23.80;99.90;;;;;;5021373;28;19996;-78
2023/08/09 09:17:01;;;;;;;;;;;23.90;99.90;;;;;;5021577;28;19925;-79
2023/08/09 09:19:29;;;;;;;;;;;24.10;99.90;;;;;;5037180;28;19933;-78
2023/08/09 09:21:54;;;;;;;;;;;24.30;99.90;;;;;;5038038;28;19948;-81
2023/08/09 09:24:26;;;;;;;;;;;24.40;93.60;;;;;;5037386;28;19952;-78
2023/08/09 09:26:54;;;;;;;;;;;24.10;99.90;;;;;;5037757;28;20008;-78
2023/08/09 09:29:31;;;;;;;;;;;23.70;99.90;;;;;;5037389;28;19975;-78
2023/08/09 09:31:59;;;;;;;;;;;23.40;94.90;;;;;;5037479;28;19965;-78
2023/08/09 09:34:30;;;;;;;;;;;23.60;99.90;;;;;;5052002;28;20004;-78
2023/08/09 09:36:55;;;;;;;;;;;23.90;98.90;;;;;;5053777;28;19929;-78
2023/08/09 09:39:27;;;;;;;;;;;24.00;99.90;;;;;;5048361;28;20030;-78
2023/08/09 09:41:53;;;;;;;;;;;24.00;99.20;;;;;;5028287;28;19929;-77
2023/08/09 09:44:21;;;;;;;;;;;23.90;99.90;;;;;;5037296;28;19925;-77
2023/08/09 09:46:58;;;;;;;;;;;23.60;96.90;;;;;;5022202;28;19932;-77
2023/08/09 09:49:24;;;;;;;;;;;23.40;99.20;;;;;;5053008;28;20757;-77
2023/08/09 09:51:52;;;;;;;;;;;23.10;98.20;;;;;;5038012;28;19925;-79
2023/08/09 09:54:18;;;;;;;;;;;23.20;98.70;;;;;;5019996;28;19925;-77
2023/08/09 09:56:43;;;;;;;;;;;23.60;98.70;;;;;;5037660;28;19936;-78
2023/08/09 09:59:09;;;;;;;;;;;23.70;98.60;;;;;;5036561;28;19979;-78
2023/08/09 10:01:39;;;;;;;;;;;23.70;99.90;;;;;;5004028;28;20450;-78
2023/08/09 10:04:06;;;;;;;;;;;23.50;95.90;;;;;;5053714;28;19932;-77
2023/08/09 10:06:33;;;;;;;;;;;23.20;94.40;;;;;;5036413;28;19932;-78
2023/08/09 10:08:59;;;;;;;;;;;23.10;94.90;;;;;;5021112;28;20285;-78
2023/08/09 10:11:28;;;;;;;;;;;23.00;96.60;;;;;;5003327;28;19940;-78
2023/08/09 10:13:55;;;;;;;;;;;22.90;96.70;;;;;;5037454;28;19932;-77
2023/08/09 10:16:22;;;;;;;;;;;22.70;92.20;;;;;;5036402;28;19925;-76
2023/08/09 10:18:51;;;;;;;;;;;22.70;93.50;;;;;;5036983;28;19929;-76
2023/08/09 10:21:17;;;;;;;;;;;22.60;87.90;;;;;;5036900;28;19925;-78
2023/08/09 10:23:57;;;;;;;;;;;22.50;94.00;;;;;;5036630;28;20887;-77
2023/08/09 10:26:29;;;;;;;;;;;22.40;91.30;;;;;;5037589;28;19980;-77
2023/08/09 10:29:04;;;;;;;;;;;22.30;95.60;;;;;;5035867;28;19936;-78
2023/08/09 10:31:48;;;;;;;;;;;22.10;94.90;;;;;;5020276;28;19929;-77
2023/08/09 10:34:20;;;;;;;;;;;22.00;96.30;;;;;;5035896;28;19925;-78
2023/08/09 10:36:50;;;;;;;;;;;21.80;97.80;;;;;;5036395;28;19929;-77
2023/08/09 10:39:17;;;;;;;;;;;21.60;96.80;;;;;;5070383;28;20016;-77
2023/08/09 10:42:14;;;;;;;;;;;21.60;98.10;;;;;;5026447;28;20339;-76
2023/08/09 10:44:43;;;;;;;;;;;21.70;96.70;;;;;;5022650;28;19925;-77
2023/08/09 10:47:13;;;;;;;;;;;21.90;96.00;;;;;;5037155;28;19929;-78
2023/08/09 10:49:48;;;;;;;;;;;21.90;95.80;;;;;;5019768;28;20015;-78
2023/08/09 10:52:18;;;;;;;;;;;22.00;95.20;;;;;;5074208;28;19929;-77
2023/08/09 10:54:44;;;;;;;;;;;22.00;95.80;;;;;;5039654;28;19925;-77
2023/08/09 10:57:10;;;;;;;;;;;22.00;96.30;;;;;;5040534;28;19979;-80
2023/08/09 10:59:41;;;;;;;;;;;22.10;99.80;;;;;;5040458;28;19929;-78
2023/08/09 11:02:07;;;;;;;;;;;22.10;97.70;;;;;;5023345;28;19925;-76
2023/08/09 11:04:33;;;;;;;;;;;21.90;94.20;;;;;;5074229;28;19972;-78
2023/08/09 11:06:59;;;;;;;;;;;21.80;96.30;;;;;;5039571;28;19932;-77
2023/08/09 11:09:26;;;;;;;;;;;21.70;98.00;;;;;;5040767;28;19929;-77
2023/08/09 11:11:52;;;;;;;;;;;21.60;98.90;;;;;;5056104;28;20013;-78
2023/08/09 11:14:19;;;;;;;;;;;21.50;94.20;;;;;;5023747;28;19925;-77
2023/08/09 11:16:45;;;;;;;;;;;21.50;97.70;;;;;;5040140;28;19968;-77
2023/08/09 11:19:17;;;;;;;;;;;21.60;98.50;;;;;;5039454;28;19936;-77
2023/08/09 11:21:43;;;;;;;;;;;21.70;97.80;;;;;;5057072;28;19925;-77
2023/08/09 11:24:16;;;;;;;;;;;21.90;99.90;;;;;;5039852;28;20017;-77
2023/08/09 11:26:48;;;;;;;;;;;22.10;99.90;;;;;;5023865;28;19944;-77
2023/08/09 11:29:14;;;;;;;;;;;22.30;98.00;;;;;;5039388;28;19925;-77
2023/08/09 11:31:43;;;;;;;;;;;22.60;99.90;;;;;;5023195;28;19948;-77
2023/08/09 11:34:13;;;;;;;;;;;22.80;97.00;;;;;;5039881;28;20385;-76
2023/08/09 11:36:40;;;;;;;;;;;22.90;98.80;;;;;;5039270;28;19971;-77
2023/08/09 11:39:06;;;;;;;;;;;23.00;99.90;;;;;;5037661;28;19992;-76
2023/08/09 11:41:46;;;;;;;;;;;23.20;99.90;;;;;;5028950;28;19933;-77
2023/08/09 11:44:13;;;;;;;;;;;23.30;98.80;;;;;;5026570;28;19925;-76
2023/08/09 11:46:42;;;;;;;;;;;23.20;92.10;;;;;;5039472;28;19932;-77
2023/08/09 11:49:07;;;;;;;;;;;23.10;97.60;;;;;;5039371;28;19965;-77
2023/08/09 11:51:35;;;;;;;;;;;23.00;98.10;;;;;;5055942;28;20019;-77
2023/08/09 11:54:00;;;;;;;;;;;22.90;98.10;;;;;;5013811;28;19925;-77
2023/08/09 11:56:30;;;;;;;;;;;22.80;97.60;;;;;;5070171;28;19929;-77
2023/08/09 11:58:58;;;;;;;;;;;22.70;95.80;;;;;;5022155;28;19929;-77
2023/08/09 12:01:25;;;;;;;;;;;22.60;99.20;;;;;;5038609;28;19932;-77
2023/08/09 12:03:54;;;;;;;;;;;22.50;97.80;;;;;;5022704;28;19971;-77
2023/08/09 12:06:39;;;;;;;;;;;22.40;97.90;;;;;;5039048;28;19940;-76
2023/08/09 12:09:24;;;;;;;;;;;22.40;98.00;;;;;;5043582;28;19975;-77
2023/08/09 12:11:50;;;;;;;;;;;22.30;99.00;;;;;;5059438;28;19929;-77
2023/08/09 12:14:16;;;;;;;;;;;22.20;99.90;;;;;;5039147;28;19929;-77
2023/08/09 12:16:42;;;;;;;;;;;22.20;98.60;;;;;;5039070;28;19932;-76
2023/08/09 12:19:07;;;;;;;;;;;22.40;99.90;;;;;;5038889;28;20014;-76
2023/08/09 12:21:33;;;;;;;;;;;22.60;96.00;;;;;;5038851;28;19925;-76
2023/08/09 12:23:58;;;;;;;;;;;22.80;94.10;;;;;;5038742;28;19929;-77
2023/08/09 12:26:28;;;;;;;;;;;23.20;94.80;;;;;;5055696;28;19964;-77
2023/08/09 12:28:54;;;;;;;;;;;23.30;94.80;;;;;;5037882;28;20486;-77
2023/08/09 12:31:20;;;;;;;;;;;23.50;95.30;;;;;;5039126;28;19929;-76
2023/08/09 12:33:45;;;;;;;;;;;23.40;93.30;;;;;;5037734;28;19929;-79
2023/08/09 12:36:12;;;;;;;;;;;23.30;94.00;;;;;;5038289;28;19951;-77
2023/08/09 12:38:38;;;;;;;;;;;23.20;96.80;;;;;;5038432;28;20011;-76
2023/08/09 12:41:04;;;;;;;;;;;23.10;93.90;;;;;;5054486;28;19929;-78
2023/08/09 12:43:29;;;;;;;;;;;23.00;97.40;;;;;;5013308;28;19985;-77
2023/08/09 12:45:55;;;;;;;;;;;23.00;96.20;;;;;;5051156;28;20281;-76
2023/08/09 12:48:21;;;;;;;;;;;23.00;97.70;;;;;;5038428;28;19940;-78
2023/08/09 12:50:46;;;;;;;;;;;23.10;95.60;;;;;;5037715;28;19936;-78
2023/08/09 12:53:12;;;;;;;;;;;23.00;93.10;;;;;;5038171;28;19933;-77
2023/08/09 12:55:38;;;;;;;;;;;22.80;96.60;;;;;;5038398;28;19929;-77
2023/08/09 12:58:03;;;;;;;;;;;22.50;96.80;;;;;;5037916;28;19929;-77
2023/08/09 13:00:31;;;;;;;;;;;22.30;96.80;;;;;;5038933;28;19932;-78
2023/08/09 13:02:56;;;;;;;;;;;22.00;97.00;;;;;;5053561;28;19925;-77
2023/08/09 13:05:22;;;;;;;;;;;21.70;98.10;;;;;;5054668;28;19925;-77
2023/08/09 13:07:48;;;;;;;;;;;21.50;98.00;;;;;;5037989;28;19943;-78
2023/08/09 13:10:20;;;;;;;;;;;21.30;99.40;;;;;;5037856;28;19951;-78
2023/08/09 13:12:47;;;;;;;;;;;21.10;99.90;;;;;;5021446;28;19929;-78
2023/08/09 13:15:13;;;;;;;;;;;21.00;99.90;;;;;;5021083;28;19929;-79
2023/08/09 13:17:40;;;;;;;;;;;21.30;99.90;;;;;;5038388;28;19968;-78
2023/08/09 13:20:12;;;;;;;;;;;21.50;99.90;;;;;;5037206;28;19935;-77
2023/08/09 13:22:41;;;;;;;;;;;21.60;99.90;;;;;;5038027;28;19925;-79
2023/08/09 13:25:08;;;;;;;;;;;21.60;99.90;;;;;;5021736;28;19925;-78
2023/08/09 13:27:37;;;;;;;;;;;21.60;99.90;;;;;;5035180;28;19976;-76
2023/08/09 13:30:03;;;;;;;;;;;21.60;99.30;;;;;;5029124;28;19925;-78
2023/08/09 13:32:28;;;;;;;;;;;21.60;99.90;;;;;;5053484;28;19925;-78
2023/08/09 13:34:54;;;;;;;;;;;21.50;99.90;;;;;;5037984;28;19932;-78
2023/08/09 13:37:20;;;;;;;;;;;21.40;99.90;;;;;;5036910;28;20012;-77
2023/08/09 13:39:45;;;;;;;;;;;21.40;99.90;;;;;;5037800;28;20399;-79
2023/08/09 13:42:11;;;;;;;;;;;21.50;99.90;;;;;;5037416;28;19926;-78
2023/08/09 13:44:36;;;;;;;;;;;21.50;99.90;;;;;;5037189;28;19925;-78
2023/08/09 13:47:02;;;;;;;;;;;21.70;99.90;;;;;;5037960;28;19971;-78
2023/08/09 13:49:28;;;;;;;;;;;22.00;99.90;;;;;;5036604;28;19979;-77
2023/08/09 13:51:53;;;;;;;;;;;22.20;99.60;;;;;;5038137;28;19932;-77
2023/08/09 13:54:19;;;;;;;;;;;22.50;99.80;;;;;;5036363;28;20020;-79
2023/08/09 13:56:44;;;;;;;;;;;22.60;99.00;;;;;;5038860;28;19936;-79
2023/08/09 13:59:10;;;;;;;;;;;22.70;97.60;;;;;;5037277;28;19925;-78
2023/08/09 14:01:36;;;;;;;;;;;22.70;96.00;;;;;;5037201;28;19925;-79
2023/08/09 14:04:01;;;;;;;;;;;22.50;96.30;;;;;;5054428;28;20414;-79
2023/08/09 14:06:27;;;;;;;;;;;22.30;94.40;;;;;;5037105;28;19929;-79
2023/08/09 14:08:52;;;;;;;;;;;22.10;95.30;;;;;;5037401;28;19925;-79
2023/08/09 14:11:18;;;;;;;;;;;21.80;94.10;;;;;;5036939;28;20012;-78
2023/08/09 14:13:44;;;;;;;;;;;21.70;95.60;;;;;;5037846;28;19932;-78